createdAt,value
2018-06-14T00:01:02.460Z,13.30
2018-06-14T00:03:05.553Z,13.20
2018-06-14T00:05:08.761Z,13.20
2018-06-14T00:07:11.836Z,13.20
2018-06-14T00:09:14.992Z,13.20
2018-06-14T00:11:18.068Z,13.10
2018-06-14T00:13:21.163Z,13.10
2018-06-14T00:15:24.239Z,13.10
2018-06-14T00:17:27.360Z,13.10
2018-06-14T00:19:30.424Z,13.00
2018-06-14T00:21:33.520Z,13.00
2018-06-14T00:23:36.610Z,13.00
2018-06-14T00:25:39.691Z,13.00
2018-06-14T00:27:42.776Z,13.00
2018-06-14T00:29:45.892Z,13.00
2018-06-14T00:31:48.975Z,13.00
2018-06-14T00:33:52.211Z,12.90
2018-06-14T00:35:55.308Z,12.90
2018-06-14T00:37:58.407Z,12.90
2018-06-14T00:40:01.488Z,12.90
2018-06-14T00:42:04.891Z,12.90
2018-06-14T00:44:08.048Z,12.80
2018-06-14T00:46:11.130Z,12.80
2018-06-14T00:48:14.253Z,12.80
2018-06-14T00:50:17.352Z,12.80
2018-06-14T00:52:20.529Z,12.80
2018-06-14T00:54:23.633Z,12.80
2018-06-14T00:56:26.740Z,12.70
2018-06-14T00:58:29.837Z,12.70
2018-06-14T01:00:32.968Z,12.70
2018-06-14T01:02:36.067Z,12.70
2018-06-14T01:04:39.169Z,12.70
2018-06-14T01:06:42.860Z,12.60
2018-06-14T01:08:45.952Z,12.60
2018-06-14T01:10:49.050Z,12.60
2018-06-14T01:12:52.132Z,12.60
2018-06-14T01:14:55.220Z,12.60
2018-06-14T01:19:01.196Z,12.50
2018-06-14T01:21:04.288Z,12.50
2018-06-14T01:23:07.372Z,12.50
2018-06-14T01:25:10.488Z,12.50
2018-06-14T01:27:13.636Z,12.50
2018-06-14T01:29:16.725Z,12.50
2018-06-14T01:31:19.803Z,12.40
2018-06-14T01:33:22.904Z,12.40
2018-06-14T01:35:26.065Z,12.40
2018-06-14T01:37:40.726Z,12.40
2018-06-14T01:39:43.816Z,12.40
2018-06-14T01:41:46.904Z,12.30
2018-06-14T01:43:49.987Z,12.30
2018-06-14T01:45:53.087Z,12.30
2018-06-14T01:47:56.167Z,12.30
2018-06-14T01:49:59.876Z,12.30
2018-06-14T01:52:02.960Z,12.30
2018-06-14T01:54:06.072Z,12.20
2018-06-14T01:56:09.174Z,12.20
2018-06-14T01:58:12.280Z,12.20
2018-06-14T02:00:15.364Z,12.20
2018-06-14T02:02:18.475Z,12.20
2018-06-14T02:04:21.576Z,12.10
2018-06-14T02:06:24.663Z,12.10
2018-06-14T02:08:27.759Z,12.10
2018-06-14T02:10:30.866Z,12.10
2018-06-14T02:12:33.968Z,12.10
2018-06-14T02:14:37.074Z,12.10
2018-06-14T02:16:40.159Z,12.10
2018-06-14T02:18:43.248Z,12.00
2018-06-14T02:20:46.331Z,12.00
2018-06-14T02:22:49.415Z,12.00
2018-06-14T02:24:52.501Z,12.00
2018-06-14T02:26:55.599Z,11.90
2018-06-14T02:28:58.688Z,12.00
2018-06-14T02:31:01.793Z,11.90
2018-06-14T02:33:05.026Z,11.90
2018-06-14T02:35:08.122Z,11.90
2018-06-14T02:37:11.207Z,11.90
2018-06-14T02:39:14.320Z,11.80
2018-06-14T02:41:17.414Z,11.80
2018-06-14T02:43:20.736Z,11.80
2018-06-14T02:45:23.840Z,11.80
2018-06-14T02:47:26.926Z,11.80
2018-06-14T02:49:30.022Z,11.80
2018-06-14T02:51:33.104Z,11.80
2018-06-14T02:53:36.196Z,11.70
2018-06-14T02:55:39.296Z,11.70
2018-06-14T02:57:42.391Z,11.70
2018-06-14T02:59:45.504Z,11.70
2018-06-14T03:01:48.572Z,11.80
2018-06-14T03:03:51.736Z,11.80
2018-06-14T03:05:54.826Z,11.80
2018-06-14T03:07:57.911Z,11.80
2018-06-14T03:10:01.432Z,11.80
2018-06-14T03:12:04.532Z,11.80
2018-06-14T03:14:07.608Z,11.80
2018-06-14T03:16:10.705Z,11.80
2018-06-14T03:18:13.800Z,11.80
2018-06-14T03:22:25.267Z,11.90
2018-06-14T03:24:28.344Z,11.90
2018-06-14T03:26:31.492Z,11.90
2018-06-14T03:28:34.592Z,12.00
2018-06-14T03:30:37.768Z,12.10
2018-06-14T03:32:40.853Z,12.10
2018-06-14T03:34:43.939Z,12.10
2018-06-14T03:36:47.036Z,12.20
2018-06-14T03:38:50.143Z,12.20
2018-06-14T03:40:53.344Z,12.30
2018-06-14T03:42:56.333Z,12.30
2018-06-14T03:44:59.445Z,12.30
2018-06-14T03:47:02.996Z,12.40
2018-06-14T03:49:06.124Z,12.40
2018-06-14T03:51:10.195Z,12.50
2018-06-14T03:53:13.316Z,12.50
2018-06-14T03:55:16.416Z,12.60
2018-06-14T03:57:20.071Z,12.60
2018-06-14T03:59:23.176Z,12.70
2018-06-14T04:01:26.272Z,12.70
2018-06-14T04:03:29.392Z,12.80
2018-06-14T04:05:32.484Z,12.90
2018-06-14T04:07:35.598Z,13.00
2018-06-14T04:09:38.713Z,13.10
2018-06-14T04:11:41.828Z,13.10
2018-06-14T04:13:44.944Z,13.20
2018-06-14T04:15:48.069Z,13.30
2018-06-14T04:17:59.142Z,13.40
2018-06-14T04:20:02.356Z,13.50
2018-06-14T04:22:05.500Z,13.50
2018-06-14T04:26:11.576Z,13.70
2018-06-14T04:28:14.680Z,13.80
2018-06-14T04:30:17.787Z,13.90
2018-06-14T04:32:20.904Z,14.00
2018-06-14T04:34:25.083Z,14.00
2018-06-14T04:36:29.205Z,14.10
2018-06-14T04:38:32.321Z,14.10
2018-06-14T04:40:35.434Z,14.20
2018-06-14T04:42:39.436Z,14.30
2018-06-14T04:44:42.553Z,14.30
2018-06-14T04:46:45.655Z,14.40
2018-06-14T04:48:48.772Z,14.40
2018-06-14T04:50:51.876Z,14.50
2018-06-14T04:52:55.025Z,14.60
2018-06-14T04:54:58.148Z,14.70
2018-06-14T04:57:01.266Z,14.80
2018-06-14T04:59:04.739Z,15.00
2018-06-14T05:01:08.578Z,15.50
2018-06-14T05:03:11.771Z,16.30
2018-06-14T05:05:14.885Z,17.00
2018-06-14T05:07:17.987Z,17.70
2018-06-14T05:09:21.096Z,18.50
2018-06-14T05:11:24.293Z,19.20
2018-06-14T05:13:27.487Z,19.90
2018-06-14T05:15:30.592Z,20.50
2018-06-14T05:17:33.708Z,21.10
2018-06-14T05:21:39.753Z,22.10
2018-06-14T05:23:42.884Z,22.40
2018-06-14T05:25:46.308Z,22.70
2018-06-14T05:27:49.400Z,23.00
2018-06-14T05:29:52.649Z,23.10
2018-06-14T05:31:55.739Z,23.40
2018-06-14T05:33:58.854Z,23.70
2018-06-14T05:36:02.029Z,23.90
2018-06-14T05:38:05.197Z,24.30
2018-06-14T05:40:08.263Z,24.60
2018-06-14T05:44:14.316Z,25.20
2018-06-14T05:46:17.416Z,25.60
2018-06-14T05:50:24.170Z,26.20
2018-06-14T05:52:27.334Z,26.50
2018-06-14T05:54:30.455Z,26.80
2018-06-14T05:56:33.561Z,27.00
2018-06-14T05:58:36.672Z,27.30
2018-06-14T06:00:39.804Z,27.60
2018-06-14T06:02:42.897Z,27.80
2018-06-14T06:04:46.046Z,28.00
2018-06-14T06:06:49.155Z,28.10
2018-06-14T06:08:52.293Z,28.10
2018-06-14T06:10:55.418Z,28.20
2018-06-14T06:12:58.532Z,28.20
2018-06-14T06:17:04.723Z,28.30
2018-06-14T06:19:08.056Z,28.40
2018-06-14T06:21:11.244Z,28.60
2018-06-14T06:23:14.399Z,28.80
2018-06-14T06:25:17.538Z,29.10
2018-06-14T06:27:20.658Z,29.20
2018-06-14T06:29:23.759Z,29.30
2018-06-14T06:31:26.884Z,29.60
2018-06-14T06:33:30.138Z,29.70
2018-06-14T06:35:33.124Z,29.90
2018-06-14T06:37:36.228Z,30.00
2018-06-14T06:39:39.335Z,30.20
2018-06-14T06:41:42.456Z,30.20
2018-06-14T06:43:45.541Z,30.10
2018-06-14T06:45:48.640Z,29.90
2018-06-14T06:47:51.719Z,29.80
2018-06-14T06:49:54.808Z,29.90
2018-06-14T06:51:57.896Z,30.00
2018-06-14T06:54:00.997Z,30.00
2018-06-14T06:56:04.121Z,29.90
2018-06-14T06:58:07.238Z,30.00
2018-06-14T07:00:10.347Z,29.90
2018-06-14T07:02:13.624Z,29.60
2018-06-14T07:04:16.708Z,28.90
2018-06-14T07:06:19.960Z,28.10
2018-06-14T07:08:22.908Z,27.30
2018-06-14T07:10:26.013Z,26.70
2018-06-14T07:12:29.187Z,26.00
2018-06-14T07:14:32.290Z,25.50
2018-06-14T07:16:35.668Z,24.80
2018-06-14T07:18:38.780Z,24.40
2018-06-14T07:20:41.888Z,23.90
2018-06-14T07:22:44.988Z,23.70
2018-06-14T07:24:48.077Z,23.50
2018-06-14T07:26:51.165Z,23.50
2018-06-14T07:28:54.285Z,23.20
2018-06-14T07:30:57.384Z,23.10
2018-06-14T07:33:00.474Z,23.00
2018-06-14T07:35:03.572Z,22.90
2018-06-14T07:37:06.651Z,22.80
2018-06-14T07:39:11.324Z,22.80
2018-06-14T07:41:14.444Z,22.90
2018-06-14T07:43:17.692Z,23.00
2018-06-14T07:45:20.806Z,23.20
2018-06-14T07:47:23.912Z,23.30
2018-06-14T07:49:27.028Z,23.40
2018-06-14T07:51:30.460Z,23.40
2018-06-14T07:53:33.584Z,23.30
2018-06-14T07:55:36.917Z,23.30
2018-06-14T07:57:40.033Z,23.10
2018-06-14T07:59:43.148Z,23.10
2018-06-14T08:01:46.251Z,23.00
2018-06-14T08:03:49.507Z,22.90
2018-06-14T08:05:52.619Z,22.90
2018-06-14T08:07:55.724Z,22.90
2018-06-14T08:09:58.826Z,22.80
2018-06-14T08:12:01.940Z,22.80
2018-06-14T08:14:05.044Z,22.90
2018-06-14T08:16:08.279Z,22.90
2018-06-14T08:18:11.433Z,22.80
2018-06-14T08:20:14.540Z,22.90
2018-06-14T08:22:17.664Z,23.00
2018-06-14T08:24:20.831Z,23.00
2018-06-14T08:26:24.560Z,23.10
2018-06-14T08:28:27.679Z,23.20
2018-06-14T08:30:31.013Z,23.30
2018-06-14T08:32:34.179Z,23.30
2018-06-14T08:34:37.281Z,23.40
2018-06-14T08:36:40.396Z,23.40
2018-06-14T08:38:43.583Z,23.40
2018-06-14T08:40:46.693Z,23.40
2018-06-14T08:42:49.808Z,23.20
2018-06-14T08:44:53.046Z,23.10
2018-06-14T08:46:56.088Z,23.20
2018-06-14T08:48:59.187Z,23.10
2018-06-14T08:51:02.299Z,23.00
2018-06-14T08:53:05.388Z,23.10
2018-06-14T08:55:08.492Z,23.10
2018-06-14T08:57:11.596Z,23.10
2018-06-14T08:59:14.683Z,23.10
2018-06-14T09:01:17.809Z,23.10
2018-06-14T09:03:20.860Z,23.10
2018-06-14T09:05:23.936Z,23.10
2018-06-14T09:07:27.040Z,23.30
2018-06-14T09:09:30.136Z,23.40
2018-06-14T09:11:33.226Z,23.60
2018-06-14T09:13:36.325Z,23.80
2018-06-14T09:15:39.417Z,23.80
2018-06-14T09:17:42.508Z,23.90
2018-06-14T09:19:45.602Z,24.00
2018-06-14T09:21:48.684Z,24.00
2018-06-14T09:23:51.781Z,23.90
2018-06-14T09:25:54.864Z,24.10
2018-06-14T09:27:57.939Z,24.30
2018-06-14T09:30:01.089Z,24.40
2018-06-14T09:32:04.129Z,24.70
2018-06-14T09:34:07.312Z,24.90
2018-06-14T09:36:10.395Z,25.20
2018-06-14T09:38:13.481Z,25.40
2018-06-14T09:40:16.568Z,25.50
2018-06-14T09:42:19.663Z,25.60
2018-06-14T09:44:22.780Z,25.70
2018-06-14T09:46:25.864Z,25.80
2018-06-14T09:48:28.952Z,25.80
2018-06-14T09:50:32.047Z,25.80
2018-06-14T09:52:35.148Z,25.80
2018-06-14T09:54:38.239Z,26.00
2018-06-14T09:56:41.375Z,26.10
2018-06-14T09:58:44.499Z,25.90
2018-06-14T10:00:47.585Z,26.00
2018-06-14T10:04:53.633Z,26.50
2018-06-14T10:06:56.732Z,26.40
2018-06-14T10:11:02.701Z,26.20
2018-06-14T10:13:05.781Z,26.20
2018-06-14T10:17:11.776Z,26.50
2018-06-14T10:19:14.868Z,26.60
2018-06-14T10:21:17.968Z,26.70
2018-06-14T10:23:21.068Z,26.70
2018-06-14T10:25:24.168Z,26.70
2018-06-14T10:27:27.249Z,26.80
2018-06-14T10:29:30.340Z,26.90
2018-06-14T10:31:33.455Z,27.10
2018-06-14T10:33:37.308Z,27.10
2018-06-14T10:35:40.413Z,27.00
2018-06-14T10:37:43.493Z,26.90
2018-06-14T10:39:47.120Z,27.10
2018-06-14T10:41:50.212Z,27.20
2018-06-14T10:43:53.341Z,27.20
2018-06-14T10:45:56.484Z,27.20
2018-06-14T10:47:59.616Z,27.30
2018-06-14T10:50:03.404Z,27.50
2018-06-14T10:52:06.484Z,27.70
2018-06-14T10:54:09.604Z,27.70
2018-06-14T10:56:12.729Z,27.60
2018-06-14T10:58:15.825Z,27.70
2018-06-14T11:00:18.972Z,27.80
2018-06-14T11:02:22.108Z,27.80
2018-06-14T11:04:25.208Z,27.70
2018-06-14T11:06:28.315Z,27.60
2018-06-14T11:08:31.432Z,27.60
2018-06-14T11:10:34.538Z,27.50
2018-06-14T11:12:37.653Z,27.20
2018-06-14T11:14:40.748Z,26.90
2018-06-14T11:16:43.853Z,26.70
2018-06-14T11:18:46.993Z,26.60
2018-06-14T11:20:50.168Z,26.50
2018-06-14T11:22:53.679Z,26.60
2018-06-14T11:24:59.333Z,26.60
2018-06-14T11:27:02.452Z,26.90
2018-06-14T11:29:05.609Z,27.40
2018-06-14T11:31:08.900Z,27.60
2018-06-14T11:33:12.033Z,27.80
2018-06-14T11:35:15.148Z,28.00
2018-06-14T11:37:18.259Z,28.00
2018-06-14T11:39:21.374Z,28.00
2018-06-14T11:41:24.520Z,28.00
2018-06-14T11:43:27.714Z,28.00
2018-06-14T11:45:30.784Z,28.10
2018-06-14T11:47:33.862Z,28.40
2018-06-14T11:49:36.935Z,28.40
2018-06-14T11:51:40.025Z,28.30
2018-06-14T11:53:43.116Z,28.40
2018-06-14T11:55:46.190Z,28.60
2018-06-14T11:57:49.274Z,29.00
2018-06-14T11:59:53.416Z,29.20
2018-06-14T12:01:56.500Z,29.30
2018-06-14T12:03:59.795Z,29.50
2018-06-14T12:06:02.945Z,29.60
2018-06-14T12:08:06.048Z,29.50
2018-06-14T12:10:10.089Z,29.60
2018-06-14T12:12:13.457Z,29.50
2018-06-14T12:14:16.770Z,29.40
2018-06-14T12:16:19.852Z,29.60
2018-06-14T12:18:22.921Z,29.80
2018-06-14T12:20:25.997Z,30.00
2018-06-14T12:22:29.076Z,30.00
2018-06-14T12:24:32.283Z,29.90
2018-06-14T12:26:35.375Z,30.00
2018-06-14T12:28:38.447Z,30.00
2018-06-14T12:30:41.520Z,29.80
2018-06-14T12:32:44.600Z,29.70
2018-06-14T12:34:47.676Z,29.80
2018-06-14T12:36:50.752Z,29.90
2018-06-14T12:38:53.860Z,29.50
2018-06-14T12:40:57.024Z,29.30
2018-06-14T12:43:00.107Z,29.40
2018-06-14T12:45:03.277Z,29.40
2018-06-14T12:47:06.391Z,29.60
2018-06-14T12:49:09.495Z,29.50
2018-06-14T12:51:12.609Z,29.40
2018-06-14T12:53:15.748Z,29.40
2018-06-14T12:55:18.857Z,29.50
2018-06-14T12:57:21.951Z,29.60
2018-06-14T12:59:25.061Z,29.50
2018-06-14T13:01:28.228Z,29.70
2018-06-14T13:03:31.352Z,29.90
2018-06-14T13:05:34.574Z,30.00
2018-06-14T13:07:37.660Z,30.00
2018-06-14T13:09:40.772Z,30.10
2018-06-14T13:11:43.868Z,30.40
2018-06-14T13:13:46.960Z,30.40
2018-06-14T13:15:50.063Z,30.30
2018-06-14T13:17:53.165Z,30.20
2018-06-14T13:19:56.278Z,30.10
2018-06-14T13:22:00.581Z,30.10
2018-06-14T13:24:03.684Z,30.10
2018-06-14T13:26:06.792Z,30.20
2018-06-14T13:28:10.016Z,30.10
2018-06-14T13:32:16.103Z,30.00
2018-06-14T13:34:19.184Z,30.00
2018-06-14T13:36:22.288Z,30.00
2018-06-14T13:38:25.383Z,30.00
2018-06-14T13:40:28.476Z,30.00
2018-06-14T13:42:31.592Z,29.90
2018-06-14T13:44:34.696Z,30.00
2018-06-14T13:46:39.867Z,29.90
2018-06-14T13:48:42.992Z,29.90
2018-06-14T13:50:46.083Z,30.00
2018-06-14T13:52:49.820Z,30.10
2018-06-14T13:54:53.042Z,30.00
2018-06-14T13:56:56.390Z,30.00
2018-06-14T13:58:59.519Z,30.00
2018-06-14T14:01:02.747Z,29.80
2018-06-14T14:03:05.797Z,29.60
2018-06-14T14:05:08.909Z,29.60
2018-06-14T14:07:12.026Z,29.60
2018-06-14T14:09:15.233Z,29.50
2018-06-14T14:11:18.337Z,29.30
2018-06-14T14:13:21.451Z,28.90
2018-06-14T14:17:27.494Z,28.70
2018-06-14T14:19:30.638Z,28.60
2018-06-14T14:21:33.744Z,28.40
2018-06-14T14:23:36.860Z,28.30
2018-06-14T14:25:40.076Z,28.10
2018-06-14T14:27:43.181Z,28.00
2018-06-14T14:29:46.284Z,27.80
2018-06-14T14:31:49.385Z,27.70
2018-06-14T14:33:52.511Z,27.50
2018-06-14T14:37:58.728Z,27.20
2018-06-14T14:40:01.838Z,27.00
2018-06-14T14:44:08.045Z,26.80
2018-06-14T14:46:11.140Z,26.80
2018-06-14T14:48:14.240Z,26.70
2018-06-14T14:50:17.373Z,26.50
2018-06-14T14:52:20.464Z,26.40
2018-06-14T14:54:23.584Z,26.20
2018-06-14T14:56:26.737Z,26.10
2018-06-14T15:00:32.812Z,25.70
2018-06-14T15:02:36.660Z,25.60
2018-06-14T15:04:39.809Z,25.50
2018-06-14T15:06:43.002Z,25.40
2018-06-14T15:08:46.101Z,25.30
2018-06-14T15:10:49.208Z,25.20
2018-06-14T15:12:52.332Z,24.90
2018-06-14T15:14:55.426Z,24.60
2018-06-14T15:16:58.541Z,24.50
2018-06-14T15:19:01.649Z,24.40
2018-06-14T15:21:04.769Z,24.30
2018-06-14T15:23:07.887Z,24.20
2018-06-14T15:25:10.988Z,24.00
2018-06-14T15:27:14.083Z,23.80
2018-06-14T15:29:17.196Z,23.60
2018-06-14T15:31:20.321Z,23.40
2018-06-14T15:33:23.412Z,23.20
2018-06-14T15:35:26.540Z,23.10
2018-06-14T15:37:29.648Z,23.00
2018-06-14T15:39:33.004Z,23.00
2018-06-14T15:41:36.131Z,23.00
2018-06-14T15:43:39.347Z,22.90
2018-06-14T15:45:42.801Z,22.80
2018-06-14T15:47:45.950Z,22.70
2018-06-14T15:49:49.084Z,22.70
2018-06-14T15:51:52.200Z,22.60
2018-06-14T15:53:55.352Z,22.50
2018-06-14T15:56:49.697Z,22.50
2018-06-14T15:58:52.809Z,22.30
2018-06-14T16:00:56.184Z,22.10
2018-06-14T16:02:59.293Z,22.10
2018-06-14T16:05:02.411Z,22.00
2018-06-14T16:07:05.628Z,22.00
2018-06-14T16:09:09.947Z,22.00
2018-06-14T16:11:13.070Z,22.10
2018-06-14T16:13:16.214Z,22.10
2018-06-14T16:15:19.353Z,22.00
2018-06-14T16:17:22.472Z,22.00
2018-06-14T16:19:25.684Z,22.00
2018-06-14T16:21:28.836Z,22.00
2018-06-14T16:23:32.048Z,22.00
2018-06-14T16:25:35.163Z,22.00
2018-06-14T16:27:38.288Z,22.00
2018-06-14T16:29:41.411Z,22.00
2018-06-14T16:31:44.596Z,21.90
2018-06-14T16:33:47.697Z,21.90
2018-06-14T16:35:50.821Z,21.80
2018-06-14T16:37:53.968Z,21.70
2018-06-14T16:39:57.080Z,21.60
2018-06-14T16:42:00.204Z,21.60
2018-06-14T16:44:03.292Z,21.50
2018-06-14T16:46:06.657Z,21.50
2018-06-14T16:48:09.693Z,21.40
2018-06-14T16:50:12.789Z,21.30
2018-06-14T16:52:15.884Z,21.20
2018-06-14T16:54:19.247Z,21.10
2018-06-14T16:56:22.345Z,21.00
2018-06-14T16:58:25.432Z,21.00
2018-06-14T17:00:28.535Z,20.90
2018-06-14T17:02:31.616Z,20.80
2018-06-14T17:04:34.720Z,20.80
2018-06-14T17:06:37.972Z,20.70
2018-06-14T17:08:41.054Z,20.60
2018-06-14T17:10:44.208Z,20.50
2018-06-14T17:12:47.232Z,20.50
2018-06-14T17:14:50.324Z,20.40
2018-06-14T17:16:53.458Z,20.50
2018-06-14T17:18:56.530Z,20.50
2018-06-14T17:20:59.616Z,20.50
2018-06-14T17:23:02.772Z,20.60
2018-06-14T17:25:05.840Z,20.70
2018-06-14T17:27:08.925Z,20.70
2018-06-14T17:29:12.058Z,20.80
2018-06-14T17:31:15.120Z,20.80
2018-06-14T17:33:18.331Z,20.70
2018-06-14T17:35:21.383Z,20.70
2018-06-14T17:37:24.464Z,20.70
2018-06-14T17:39:27.940Z,20.80
2018-06-14T17:41:31.109Z,20.80
2018-06-14T17:43:34.180Z,20.80
2018-06-14T17:45:37.271Z,20.70
2018-06-14T17:47:40.401Z,20.60
2018-06-14T17:49:43.448Z,20.60
2018-06-14T17:51:46.552Z,20.70
2018-06-14T17:53:50.181Z,20.70
2018-06-14T17:55:53.284Z,20.70
2018-06-14T17:57:56.369Z,20.70
2018-06-14T18:00:00.059Z,20.70
2018-06-14T18:02:03.172Z,20.70
2018-06-14T18:04:06.391Z,20.70
2018-06-14T18:06:09.495Z,20.70
2018-06-14T18:08:12.608Z,20.80
2018-06-14T18:10:15.748Z,20.80
2018-06-14T18:12:18.828Z,20.80
2018-06-14T18:14:21.903Z,20.80
2018-06-14T18:16:25.054Z,20.80
2018-06-14T18:18:28.547Z,20.80
2018-06-14T18:20:31.696Z,20.80
2018-06-14T18:22:34.869Z,20.80
2018-06-14T18:24:37.947Z,20.80
2018-06-14T18:26:41.139Z,20.90
2018-06-14T18:28:44.220Z,20.90
2018-06-14T18:30:47.321Z,20.90
2018-06-14T18:32:50.438Z,20.90
2018-06-14T18:34:53.521Z,20.90
2018-06-14T18:38:59.567Z,20.90
2018-06-14T18:41:02.648Z,20.90
2018-06-14T18:43:05.734Z,21.00
2018-06-14T18:45:08.854Z,21.00
2018-06-14T18:47:11.923Z,21.00
2018-06-14T18:49:15.013Z,21.10
2018-06-14T18:51:18.116Z,21.10
2018-06-14T18:53:21.220Z,21.10
2018-06-14T18:55:24.396Z,21.10
2018-06-14T18:57:27.600Z,21.00
2018-06-14T18:59:30.773Z,21.00
2018-06-14T19:01:33.868Z,20.90
2018-06-14T19:03:36.960Z,20.80
2018-06-14T19:05:40.048Z,20.80
2018-06-14T19:07:43.136Z,20.80
2018-06-14T19:09:46.407Z,20.70
2018-06-14T19:11:49.573Z,20.60
2018-06-14T19:13:52.735Z,20.50
2018-06-14T19:15:55.816Z,20.40
2018-06-14T19:17:58.932Z,20.40
2018-06-14T19:20:02.029Z,20.30
2018-06-14T19:22:05.199Z,20.20
2018-06-14T19:24:08.282Z,20.10
2018-06-14T19:26:11.490Z,20.10
2018-06-14T19:28:14.607Z,20.10
2018-06-14T19:30:17.845Z,20.10
2018-06-14T19:32:20.936Z,20.10
2018-06-14T19:34:24.032Z,20.10
2018-06-14T19:36:27.184Z,20.00
2018-06-14T19:38:30.410Z,20.00
2018-06-14T19:40:33.512Z,19.90
2018-06-14T19:42:36.624Z,19.80
2018-06-14T19:44:39.743Z,19.80
2018-06-14T19:46:42.860Z,19.70
2018-06-14T19:48:45.976Z,19.70
2018-06-14T19:50:49.117Z,19.70
2018-06-14T19:52:52.232Z,19.70
2018-06-14T19:54:55.388Z,19.70
2018-06-14T19:56:58.492Z,19.70
2018-06-14T19:59:01.620Z,19.70
2018-06-14T20:01:04.812Z,19.60
2018-06-14T20:03:07.883Z,19.50
2018-06-14T20:05:11.008Z,19.50
2018-06-14T20:07:14.123Z,19.50
2018-06-14T20:09:17.255Z,19.50
2018-06-14T20:11:20.376Z,19.50
2018-06-14T20:13:23.485Z,19.50
2018-06-14T20:15:26.660Z,19.50
2018-06-14T20:17:29.828Z,19.50
2018-06-14T20:19:32.972Z,19.50
2018-06-14T20:21:36.096Z,19.50
2018-06-14T20:23:39.222Z,19.30
2018-06-14T20:25:42.380Z,19.20
2018-06-14T20:27:45.497Z,19.20
2018-06-14T20:29:48.620Z,19.20
2018-06-14T20:31:51.747Z,19.10
2018-06-14T20:33:54.954Z,19.10
2018-06-14T20:35:58.140Z,19.10
2018-06-14T20:38:01.293Z,19.00
2018-06-14T20:40:04.411Z,19.00
2018-06-14T20:42:08.422Z,19.00
2018-06-14T20:44:11.450Z,19.00
2018-06-14T20:46:14.539Z,19.00
2018-06-14T20:48:17.726Z,19.00
2018-06-14T20:50:20.820Z,19.00
2018-06-14T20:52:23.918Z,19.00
2018-06-14T20:54:27.112Z,19.00
2018-06-14T20:56:30.212Z,19.00
2018-06-14T20:58:33.292Z,19.00
2018-06-14T21:00:36.423Z,19.00
2018-06-14T21:02:39.528Z,19.00
2018-06-14T21:04:42.604Z,19.00
2018-06-14T21:06:45.680Z,19.00
2018-06-14T21:08:48.755Z,19.00
2018-06-14T21:12:54.888Z,19.00
2018-06-14T21:14:57.992Z,19.00
2018-06-14T21:17:01.074Z,19.00
2018-06-14T21:19:04.198Z,19.00
2018-06-14T21:21:07.308Z,19.00
2018-06-14T21:23:10.396Z,19.00
2018-06-14T21:25:13.591Z,19.00
2018-06-14T21:27:16.741Z,19.00
2018-06-14T21:29:20.435Z,19.00
2018-06-14T21:31:23.512Z,19.00
2018-06-14T21:33:26.588Z,19.00
2018-06-14T21:35:29.671Z,19.00
2018-06-14T21:37:32.760Z,19.00
2018-06-14T21:39:35.865Z,19.00
2018-06-14T21:41:38.968Z,19.00
2018-06-14T21:43:42.065Z,18.90
2018-06-14T21:45:45.152Z,19.00
2018-06-14T21:47:48.228Z,19.00
2018-06-14T21:49:51.316Z,18.90
2018-06-14T21:51:54.396Z,18.90
2018-06-14T21:53:57.560Z,18.90
2018-06-14T21:56:00.661Z,18.90
2018-06-14T21:58:03.732Z,18.90
2018-06-14T22:00:07.360Z,18.90
2018-06-14T22:02:10.457Z,18.90
2018-06-14T22:04:13.541Z,18.90
2018-06-14T22:06:16.620Z,18.80
2018-06-14T22:08:19.701Z,18.80
2018-06-14T22:10:22.789Z,18.70
2018-06-14T22:12:25.896Z,18.70
2018-06-14T22:14:28.977Z,18.70
2018-06-14T22:16:32.908Z,18.70
2018-06-14T22:18:36.014Z,18.70
2018-06-14T22:20:39.137Z,18.70
2018-06-14T22:22:42.224Z,18.70
2018-06-14T22:24:45.320Z,18.60
2018-06-14T22:26:48.404Z,18.60
2018-06-14T22:28:51.480Z,18.60
2018-06-14T22:30:54.563Z,18.60
2018-06-14T22:33:09.224Z,18.60
2018-06-14T22:35:20.655Z,18.60
2018-06-14T22:37:23.745Z,18.50
2018-06-14T22:39:26.816Z,18.50
2018-06-14T22:41:29.909Z,18.50
2018-06-14T22:43:33.004Z,18.60
2018-06-14T22:45:36.112Z,18.60
2018-06-14T22:47:39.265Z,18.60
2018-06-14T22:49:42.372Z,18.50
2018-06-14T22:52:11.492Z,18.50
2018-06-14T22:54:14.596Z,18.50
2018-06-14T22:56:17.693Z,18.50
2018-06-14T22:58:20.804Z,18.40
2018-06-14T23:00:37.952Z,18.40
2018-06-14T23:02:41.068Z,18.40
2018-06-14T23:04:44.165Z,18.40
2018-06-14T23:06:47.407Z,18.40
2018-06-14T23:08:50.704Z,18.40
2018-06-14T23:11:05.180Z,18.40
2018-06-14T23:13:09.475Z,18.40
2018-06-14T23:15:12.956Z,18.40
2018-06-14T23:17:16.060Z,18.40
2018-06-14T23:19:19.169Z,18.40
2018-06-14T23:21:22.299Z,18.40
2018-06-14T23:23:25.410Z,18.50
2018-06-14T23:25:29.196Z,18.50
2018-06-14T23:27:32.336Z,18.50
2018-06-14T23:29:35.436Z,18.50
2018-06-14T23:31:38.548Z,18.50
2018-06-14T23:33:41.660Z,18.50
2018-06-14T23:35:44.760Z,18.50
2018-06-14T23:37:48.084Z,18.50
2018-06-14T23:39:51.225Z,18.50
2018-06-14T23:41:54.326Z,18.60
2018-06-14T23:43:57.440Z,18.60
2018-06-14T23:46:00.508Z,18.60
2018-06-14T23:48:04.498Z,18.60
2018-06-14T23:50:07.556Z,18.60
2018-06-14T23:52:10.656Z,18.60
2018-06-14T23:54:13.721Z,18.60
2018-06-14T23:56:16.878Z,18.60
2018-06-14T23:58:19.944Z,18.60
